Terminal Aerodrome Forecast
Issued by NWS

Home | Current Version | Previous Version | Text Only | Print | Product List | Glossary On
Versions: 1 2 3 4 5 6 7 8 9 10 11 12 13 14 15 16 17 18 19 20 21 22
000
FTUS44 KBMX 230537
TAFTCL
TAF
KTCL 230537Z 2306/2406 18010G15KT P6SM VCSH SCT015 OVC060
     FM230800 18010G15KT P6SM BKN015
     FM231600 20015G22KT P6SM BKN035
     FM231900 20015G22KT 4SM SHRA BKN025 PROB30 2319/2323 2SM TSRA
      BKN025CB
     FM232300 21010KT P6SM VCSH BKN025=

USA.gov is the U.S. government's official web portal to all federal, state and local government web resources and services.